Arena, Wisconsin
Current Conditions -  °F | °C
As of 10:56 AM on Thursday 27 Nov 2014 (Local Time) from KLNR Reporting Station
Clear Clear  
Wind Chill:   Ceiling: Unl
Heat Index: 21°   Visibility: 10mi
Dew Point:   Wind: 12mph
Humidity: 57%   Direction: 310°NW
Pressure: 30.42"   Gusts: NA
Location:  43.17°N, 89.91°W
Report Text: KLNR 271656Z AUTO 31010KT 10SM CLR M06/M13 A3042 RMK AO2 SLP307 T10611133
Loading
Personal Weather Stations






























Interactive Weather Map New forecast layout! Learn more

10-Day Weather Forecast

Advertisements
Track Severe Weather on mobile